ENT7160 LTAI-EPKT
Flight info
| Callsign | ENT7160 |
|---|---|
| Flight time | N/A |
| Altitude | 34000 |
| Route | EKNUD1K/18L EKNUD UT337 OSVEL/N0454F360 UL619 MAKOL DCT ANAVU DCT KENIN DCT LENOV |
| Aircraft | B738/M-SDGHIJ1RWXY/EB1 |
Departure
| Time | 2026-05-05 14:48 |
|---|---|
| Airport | Antalya International Airport (LTAI) |
Arrival
| Time | N/A |
|---|---|
| Airport | Katowice Wojciech Korfanty International Airport (EPKT) |
| Time | Latitude | Longitude | Altitude | Speed | Heading |
|---|---|---|---|---|---|
| 2026-05-05 14:05 | 36.91631 | 30.80145 | 190 ft | 0 kts | 188° |
| 2026-05-05 14:33 | 36.91647 | 30.80148 | 206 ft | 3 kts | 187° |
| 2026-05-05 14:33 | 36.91667 | 30.80151 | 204 ft | 3 kts | 168° |
| 2026-05-05 14:33 | 36.91687 | 30.80131 | 198 ft | 3 kts | 114° |
| 2026-05-05 14:34 | 36.91693 | 30.80114 | 197 ft | 3 kts | 105° |
| 2026-05-05 14:34 | 36.91698 | 30.80086 | 205 ft | 3 kts | 98° |
| 2026-05-05 14:34 | 36.91701 | 30.80058 | 205 ft | 3 kts | 96° |
| 2026-05-05 14:34 | 36.91703 | 30.80033 | 198 ft | 3 kts | 97° |
| 2026-05-05 14:35 | 36.91705 | 30.80005 | 200 ft | 3 kts | 94° |
| 2026-05-05 14:35 | 36.91708 | 30.79979 | 195 ft | 3 kts | 121° |
| 2026-05-05 14:35 | 36.91721 | 30.79959 | 204 ft | 3 kts | 151° |
| 2026-05-05 14:35 | 36.91740 | 30.79954 | 205 ft | 3 kts | 189° |
| 2026-05-05 14:36 | 36.91762 | 30.79959 | 191 ft | 2 kts | 187° |
| 2026-05-05 14:36 | 36.91764 | 30.79960 | 205 ft | 1 kts | 186° |
| 2026-05-05 14:39 | 36.91711 | 30.79953 | 202 ft | 15 kts | 186° |
| 2026-05-05 14:40 | 36.91608 | 30.79938 | 201 ft | 15 kts | 187° |
| 2026-05-05 14:40 | 36.91513 | 30.79911 | 201 ft | 14 kts | 233° |
| 2026-05-05 14:40 | 36.91517 | 30.79790 | 190 ft | 16 kts | 276° |
| 2026-05-05 14:40 | 36.91455 | 30.79687 | 189 ft | 18 kts | 186° |
| 2026-05-05 14:41 | 36.91332 | 30.79670 | 194 ft | 18 kts | 187° |
| 2026-05-05 14:41 | 36.91206 | 30.79653 | 192 ft | 19 kts | 185° |
| 2026-05-05 14:41 | 36.91070 | 30.79636 | 190 ft | 20 kts | 186° |
| 2026-05-05 14:41 | 36.90937 | 30.79619 | 194 ft | 19 kts | 185° |
| 2026-05-05 14:42 | 36.90809 | 30.79601 | 194 ft | 18 kts | 191° |
| 2026-05-05 14:42 | 36.90681 | 30.79580 | 204 ft | 20 kts | 186° |
| 2026-05-05 14:42 | 36.90539 | 30.79561 | 199 ft | 20 kts | 186° |
| 2026-05-05 14:42 | 36.90416 | 30.79591 | 194 ft | 20 kts | 106° |
| 2026-05-05 14:43 | 36.90399 | 30.79758 | 190 ft | 19 kts | 97° |
| 2026-05-05 14:43 | 36.90384 | 30.79924 | 191 ft | 19 kts | 97° |
| 2026-05-05 14:43 | 36.90369 | 30.80090 | 197 ft | 20 kts | 96° |
| 2026-05-05 14:43 | 36.90353 | 30.80265 | 197 ft | 20 kts | 96° |
| 2026-05-05 14:44 | 36.90338 | 30.80435 | 196 ft | 19 kts | 97° |
| 2026-05-05 14:44 | 36.90324 | 30.80601 | 198 ft | 20 kts | 97° |
| 2026-05-05 14:44 | 36.90343 | 30.80786 | 191 ft | 23 kts | 33° |
| 2026-05-05 14:44 | 36.90496 | 30.80818 | 197 ft | 22 kts | 6° |
| 2026-05-05 14:45 | 36.90647 | 30.80839 | 190 ft | 21 kts | 6° |
| 2026-05-05 14:45 | 36.90793 | 30.80859 | 199 ft | 21 kts | 6° |
| 2026-05-05 14:45 | 36.90935 | 30.80879 | 200 ft | 20 kts | 6° |
| 2026-05-05 14:45 | 36.91072 | 30.80898 | 195 ft | 20 kts | 6° |
| 2026-05-05 14:46 | 36.91136 | 30.81020 | 193 ft | 19 kts | 92° |
| 2026-05-05 14:46 | 36.91069 | 30.81132 | 194 ft | 16 kts | 181° |
| 2026-05-05 14:46 | 36.91059 | 30.81132 | 200 ft | 0 kts | 184° |
| 2026-05-05 14:48 | 36.90874 | 30.81107 | 191 ft | 61 kts | 186° |
| 2026-05-05 14:48 | 36.90226 | 30.81018 | 193 ft | 124 kts | 186° |
| 2026-05-05 14:48 | 36.89208 | 30.80893 | 335 ft | 162 kts | 184° |
| 2026-05-05 14:48 | 36.88044 | 30.80753 | 926 ft | 175 kts | 180° |
| 2026-05-05 14:49 | 36.86787 | 30.80954 | 1483 ft | 193 kts | 172° |
| 2026-05-05 14:49 | 36.85408 | 30.81220 | 1884 ft | 208 kts | 172° |
| 2026-05-05 14:49 | 36.83937 | 30.81501 | 2361 ft | 218 kts | 171° |
| 2026-05-05 14:49 | 36.82404 | 30.81791 | 2850 ft | 229 kts | 171° |
| 2026-05-05 14:50 | 36.80794 | 30.82093 | 3407 ft | 238 kts | 171° |
| 2026-05-05 14:50 | 36.79161 | 30.82537 | 4036 ft | 247 kts | 157° |
| 2026-05-05 14:50 | 36.77538 | 30.83517 | 4340 ft | 271 kts | 151° |
| 2026-05-05 14:50 | 36.75820 | 30.84639 | 4879 ft | 284 kts | 147° |
| 2026-05-05 14:51 | 36.74382 | 30.86286 | 5675 ft | 280 kts | 120° |
| 2026-05-05 14:51 | 36.73662 | 30.88529 | 6421 ft | 280 kts | 97° |
| 2026-05-05 14:51 | 36.73436 | 30.90943 | 7171 ft | 283 kts | 92° |
| 2026-05-05 14:51 | 36.73260 | 30.93411 | 7890 ft | 288 kts | 91° |
| 2026-05-05 14:52 | 36.73083 | 30.95921 | 8634 ft | 292 kts | 92° |
| 2026-05-05 14:52 | 36.72896 | 30.98442 | 9430 ft | 295 kts | 93° |
| 2026-05-05 14:52 | 36.72695 | 31.01010 | 10092 ft | 301 kts | 92° |
| 2026-05-05 14:52 | 36.72482 | 31.03671 | 10427 ft | 320 kts | 92° |
| 2026-05-05 14:53 | 36.72345 | 31.06522 | 10607 ft | 339 kts | 82° |
| 2026-05-05 14:53 | 36.73055 | 31.09357 | 10894 ft | 349 kts | 55° |
| 2026-05-05 14:53 | 36.74696 | 31.11552 | 11492 ft | 347 kts | 30° |
| 2026-05-05 14:53 | 36.76895 | 31.12712 | 12162 ft | 346 kts | 9° |
| 2026-05-05 14:54 | 36.79295 | 31.13088 | 12827 ft | 348 kts | 3° |
| 2026-05-05 14:54 | 36.81693 | 31.13373 | 13720 ft | 345 kts | 3° |
| 2026-05-05 14:54 | 36.84105 | 31.13589 | 14286 ft | 351 kts | 359° |
| 2026-05-05 14:54 | 36.86561 | 31.13494 | 14834 ft | 355 kts | 355° |
| 2026-05-05 14:55 | 36.89032 | 31.13305 | 15496 ft | 356 kts | 354° |
| 2026-05-05 14:55 | 36.91512 | 31.13095 | 16125 ft | 359 kts | 354° |
| 2026-05-05 14:55 | 36.94023 | 31.12884 | 16644 ft | 365 kts | 354° |
| 2026-05-05 14:55 | 36.96579 | 31.12678 | 17171 ft | 370 kts | 354° |
| 2026-05-05 14:56 | 36.99159 | 31.12480 | 17779 ft | 373 kts | 354° |
| 2026-05-05 14:56 | 37.01757 | 31.12288 | 18391 ft | 375 kts | 354° |
| 2026-05-05 14:56 | 37.04376 | 31.12100 | 18922 ft | 378 kts | 354° |
| 2026-05-05 14:56 | 37.07003 | 31.11914 | 19462 ft | 379 kts | 354° |
| 2026-05-05 14:57 | 37.09646 | 31.11729 | 20013 ft | 381 kts | 354° |
| 2026-05-05 14:57 | 37.12302 | 31.11543 | 20510 ft | 384 kts | 354° |
| 2026-05-05 14:57 | 37.14980 | 31.11357 | 20921 ft | 387 kts | 354° |
| 2026-05-05 14:57 | 37.17667 | 31.11170 | 21505 ft | 386 kts | 353° |
| 2026-05-05 14:58 | 37.20357 | 31.10982 | 22027 ft | 388 kts | 353° |
| 2026-05-05 14:58 | 37.23029 | 31.10792 | 22425 ft | 391 kts | 353° |
| 2026-05-05 14:58 | 37.25756 | 31.10598 | 22881 ft | 394 kts | 353° |
| 2026-05-05 14:58 | 37.28497 | 31.10407 | 23331 ft | 396 kts | 353° |
| 2026-05-05 14:59 | 37.31255 | 31.10215 | 23758 ft | 398 kts | 353° |
| 2026-05-05 14:59 | 37.34026 | 31.10022 | 24127 ft | 400 kts | 353° |
| 2026-05-05 14:59 | 37.36818 | 31.09827 | 24504 ft | 403 kts | 353° |
| 2026-05-05 14:59 | 37.39629 | 31.09632 | 24867 ft | 406 kts | 353° |
| 2026-05-05 15:00 | 37.42450 | 31.09438 | 25266 ft | 407 kts | 353° |
| 2026-05-05 15:00 | 37.44368 | 31.09303 | 25492 ft | 409 kts | 353° |
| 2026-05-05 15:00 | 37.48140 | 31.09037 | 26034 ft | 410 kts | 352° |
| 2026-05-05 15:00 | 37.50996 | 31.08835 | 26402 ft | 412 kts | 352° |
| 2026-05-05 15:01 | 37.53870 | 31.08631 | 26711 ft | 415 kts | 352° |
| 2026-05-05 15:01 | 37.56765 | 31.08426 | 27013 ft | 418 kts | 352° |
| 2026-05-05 15:01 | 37.59677 | 31.08220 | 27371 ft | 420 kts | 352° |
| 2026-05-05 15:01 | 37.62599 | 31.08014 | 27712 ft | 422 kts | 352° |
| 2026-05-05 15:02 | 37.65541 | 31.07806 | 28025 ft | 424 kts | 352° |
| 2026-05-05 15:02 | 37.68496 | 31.07597 | 28331 ft | 426 kts | 352° |
| 2026-05-05 15:02 | 37.71462 | 31.07387 | 28626 ft | 428 kts | 352° |
| 2026-05-05 15:02 | 37.74442 | 31.07177 | 28893 ft | 431 kts | 352° |
| 2026-05-05 15:03 | 37.77443 | 31.06964 | 29182 ft | 432 kts | 352° |
| 2026-05-05 15:03 | 37.80447 | 31.06751 | 29569 ft | 432 kts | 352° |
| 2026-05-05 15:03 | 37.83445 | 31.06540 | 29966 ft | 431 kts | 352° |
| 2026-05-05 15:03 | 37.86432 | 31.06328 | 30364 ft | 429 kts | 353° |
| 2026-05-05 15:04 | 37.89407 | 31.06118 | 30742 ft | 427 kts | 353° |
| 2026-05-05 15:04 | 37.92381 | 31.05907 | 31043 ft | 428 kts | 353° |
| 2026-05-05 15:04 | 37.95352 | 31.05695 | 31315 ft | 428 kts | 353° |
| 2026-05-05 15:04 | 37.98320 | 31.05483 | 31644 ft | 427 kts | 353° |
| 2026-05-05 15:05 | 38.04243 | 31.05060 | 32253 ft | 426 kts | 354° |
| 2026-05-05 15:05 | 38.07204 | 31.04848 | 32544 ft | 426 kts | 354° |
| 2026-05-05 15:05 | 38.10159 | 31.04637 | 32861 ft | 425 kts | 354° |
| 2026-05-05 15:06 | 38.13107 | 31.04426 | 33180 ft | 424 kts | 354° |
| 2026-05-05 15:06 | 38.16053 | 31.04215 | 33423 ft | 425 kts | 354° |
| 2026-05-05 15:06 | 38.19004 | 31.04003 | 33683 ft | 424 kts | 354° |
| 2026-05-05 15:06 | 38.21948 | 31.03792 | 33973 ft | 424 kts | 354° |
| 2026-05-05 15:07 | 38.24901 | 31.03580 | 34015 ft | 427 kts | 354° |
| 2026-05-05 15:07 | 38.30845 | 31.03152 | 34023 ft | 427 kts | 354° |
| 2026-05-05 15:08 | 38.36737 | 31.02728 | 34013 ft | 421 kts | 354° |
| 2026-05-05 15:08 | 38.42579 | 31.02307 | 34023 ft | 420 kts | 354° |
| 2026-05-05 15:09 | 38.48373 | 31.01640 | 34037 ft | 416 kts | 346° |
| 2026-05-05 15:09 | 38.53838 | 30.99310 | 34026 ft | 414 kts | 338° |
| 2026-05-05 15:10 | 38.59232 | 30.96658 | 34024 ft | 417 kts | 338° |
| 2026-05-05 15:10 | 38.64668 | 30.94011 | 34021 ft | 419 kts | 338° |
| 2026-05-05 15:11 | 38.70135 | 30.91370 | 34031 ft | 422 kts | 338° |
| 2026-05-05 15:11 | 38.75646 | 30.88711 | 34032 ft | 424 kts | 338° |
| 2026-05-05 15:12 | 38.81185 | 30.86037 | 34020 ft | 427 kts | 338° |
| 2026-05-05 15:12 | 38.86749 | 30.83346 | 34029 ft | 428 kts | 338° |
| 2026-05-05 15:13 | 38.92324 | 30.80645 | 34028 ft | 428 kts | 338° |
| 2026-05-05 15:13 | 38.97893 | 30.77942 | 34033 ft | 427 kts | 338° |
| 2026-05-05 15:14 | 39.03448 | 30.75241 | 34027 ft | 426 kts | 338° |
| 2026-05-05 15:14 | 39.08975 | 30.72549 | 34033 ft | 424 kts | 338° |
| 2026-05-05 15:15 | 39.14479 | 30.69863 | 34025 ft | 422 kts | 338° |
| 2026-05-05 15:15 | 39.19965 | 30.67183 | 34037 ft | 421 kts | 339° |
| 2026-05-05 15:16 | 39.25432 | 30.64506 | 34041 ft | 420 kts | 339° |
| 2026-05-05 15:16 | 39.30885 | 30.61832 | 34042 ft | 419 kts | 339° |
| 2026-05-05 15:17 | 39.36334 | 30.59156 | 34049 ft | 419 kts | 339° |
| 2026-05-05 15:17 | 39.41785 | 30.56474 | 34053 ft | 419 kts | 339° |
| 2026-05-05 15:18 | 39.46317 | 30.54241 | 34049 ft | 419 kts | 339° |
| 2026-05-05 15:18 | 39.51771 | 30.51549 | 34057 ft | 420 kts | 339° |
| 2026-05-05 15:19 | 39.57209 | 30.48749 | 34064 ft | 421 kts | 336° |
| 2026-05-05 15:19 | 39.62550 | 30.45638 | 34069 ft | 421 kts | 335° |
| 2026-05-05 15:20 | 39.67885 | 30.42472 | 34075 ft | 422 kts | 335° |
| 2026-05-05 15:20 | 39.73240 | 30.39318 | 34061 ft | 423 kts | 335° |
| 2026-05-05 15:21 | 39.78603 | 30.36176 | 34071 ft | 423 kts | 335° |
| 2026-05-05 15:21 | 39.83982 | 30.33028 | 34076 ft | 424 kts | 335° |
| 2026-05-05 15:22 | 39.89369 | 30.29870 | 34076 ft | 425 kts | 336° |
| 2026-05-05 15:22 | 39.94767 | 30.26699 | 34078 ft | 426 kts | 336° |
| 2026-05-05 15:23 | 40.00175 | 30.23518 | 34076 ft | 427 kts | 336° |
| 2026-05-05 15:23 | 40.05588 | 30.20326 | 34080 ft | 427 kts | 336° |
| 2026-05-05 15:24 | 40.11001 | 30.17130 | 34083 ft | 427 kts | 336° |
| 2026-05-05 15:24 | 40.16413 | 30.13929 | 34076 ft | 427 kts | 336° |
| 2026-05-05 15:25 | 40.21816 | 30.10727 | 34062 ft | 426 kts | 336° |
| 2026-05-05 15:25 | 40.27212 | 30.07524 | 34072 ft | 426 kts | 336° |
| 2026-05-05 15:26 | 40.32605 | 30.04317 | 34081 ft | 426 kts | 336° |
| 2026-05-05 15:26 | 40.37992 | 30.01108 | 34075 ft | 426 kts | 336° |
| 2026-05-05 15:27 | 40.43392 | 29.97886 | 34080 ft | 426 kts | 336° |
| 2026-05-05 15:27 | 40.48787 | 29.94660 | 34068 ft | 426 kts | 336° |
| 2026-05-05 15:28 | 40.54182 | 29.91429 | 34069 ft | 426 kts | 336° |
| 2026-05-05 15:28 | 40.59573 | 29.88194 | 34070 ft | 426 kts | 336° |
| 2026-05-05 15:29 | 40.64974 | 29.84949 | 34083 ft | 427 kts | 336° |
| 2026-05-05 15:29 | 40.70376 | 29.81696 | 34055 ft | 428 kts | 336° |
| 2026-05-05 15:30 | 40.75786 | 29.78433 | 34065 ft | 428 kts | 336° |
| 2026-05-05 15:30 | 40.81198 | 29.75162 | 34071 ft | 428 kts | 336° |
| 2026-05-05 15:31 | 40.86616 | 29.71883 | 34076 ft | 429 kts | 336° |
| 2026-05-05 15:31 | 40.92013 | 29.68610 | 34074 ft | 430 kts | 336° |
| 2026-05-05 15:32 | 40.97490 | 29.65282 | 34067 ft | 431 kts | 336° |
| 2026-05-05 15:32 | 41.02938 | 29.61965 | 34076 ft | 431 kts | 336° |
| 2026-05-05 15:33 | 41.08348 | 29.58666 | 34052 ft | 431 kts | 336° |
| 2026-05-05 15:33 | 41.13799 | 29.55336 | 34069 ft | 431 kts | 336° |
| 2026-05-05 15:34 | 41.19246 | 29.52010 | 34077 ft | 431 kts | 337° |
| 2026-05-05 15:34 | 41.24924 | 29.49502 | 34077 ft | 430 kts | 345° |
| 2026-05-05 15:35 | 41.30689 | 29.47420 | 34061 ft | 429 kts | 345° |
| 2026-05-05 15:35 | 41.36448 | 29.45312 | 34068 ft | 429 kts | 345° |
| 2026-05-05 15:36 | 41.42192 | 29.43153 | 34071 ft | 429 kts | 345° |
| 2026-05-05 15:36 | 41.47928 | 29.40970 | 34068 ft | 429 kts | 345° |
| 2026-05-05 15:37 | 41.53660 | 29.38780 | 34064 ft | 428 kts | 345° |
| 2026-05-05 15:37 | 41.59388 | 29.36590 | 34058 ft | 428 kts | 345° |
| 2026-05-05 15:38 | 41.65115 | 29.34397 | 34079 ft | 428 kts | 345° |
| 2026-05-05 15:38 | 41.70837 | 29.32202 | 34066 ft | 428 kts | 345° |
| 2026-05-05 15:39 | 41.76561 | 29.30002 | 34070 ft | 428 kts | 345° |
| 2026-05-05 15:39 | 41.82282 | 29.27799 | 34064 ft | 427 kts | 345° |
| 2026-05-05 15:40 | 41.87996 | 29.25594 | 34077 ft | 427 kts | 345° |
| 2026-05-05 15:40 | 41.93712 | 29.23385 | 34063 ft | 428 kts | 345° |
| 2026-05-05 15:41 | 41.99393 | 29.21185 | 34074 ft | 428 kts | 345° |
| 2026-05-05 15:41 | 42.05114 | 29.18965 | 34077 ft | 428 kts | 345° |
| 2026-05-05 15:42 | 42.10837 | 29.16740 | 34075 ft | 428 kts | 345° |
| 2026-05-05 15:42 | 42.16503 | 29.14268 | 34064 ft | 430 kts | 336° |
| 2026-05-05 15:43 | 42.21557 | 29.09953 | 34081 ft | 432 kts | 324° |
| 2026-05-05 15:43 | 42.26329 | 29.04995 | 34070 ft | 433 kts | 324° |
| 2026-05-05 15:44 | 42.31102 | 29.00025 | 34063 ft | 433 kts | 324° |